createdAt,value
2022-09-21T00:02:10.835Z,43.49
2022-09-21T00:04:38.559Z,43.57
2022-09-21T00:07:06.272Z,43.48
2022-09-21T00:09:33.974Z,43.56
2022-09-21T00:12:02.814Z,43.62
2022-09-21T00:14:31.378Z,43.52
2022-09-21T00:16:59.146Z,43.80
2022-09-21T00:19:27.065Z,43.60
2022-09-21T00:21:54.786Z,43.51
2022-09-21T00:24:22.506Z,43.54
2022-09-21T00:26:50.201Z,43.60
2022-09-21T00:29:18.079Z,43.66
2022-09-21T00:31:45.761Z,43.64
2022-09-21T00:34:13.640Z,43.77
2022-09-21T00:36:41.351Z,43.45
2022-09-21T00:39:09.255Z,43.46
2022-09-21T00:41:36.972Z,43.61
2022-09-21T00:44:04.696Z,43.75
2022-09-21T00:46:32.455Z,43.73
2022-09-21T00:49:00.177Z,43.88
2022-09-21T00:51:27.855Z,43.64
2022-09-21T00:53:55.795Z,43.90
2022-09-21T00:56:23.514Z,43.54
2022-09-21T00:58:51.242Z,43.41
2022-09-21T01:01:19.261Z,43.52
2022-09-21T01:03:46.969Z,43.82
2022-09-21T01:06:14.666Z,43.57
2022-09-21T01:08:42.370Z,43.69
2022-09-21T01:11:10.190Z,43.49
2022-09-21T01:13:38.182Z,43.68
2022-09-21T01:16:05.917Z,43.80
2022-09-21T01:18:35.870Z,43.38
2022-09-21T01:21:03.534Z,43.74
2022-09-21T01:23:31.293Z,43.53
2022-09-21T01:25:58.954Z,43.79
2022-09-21T01:28:26.634Z,43.79
2022-09-21T01:30:54.572Z,43.98
2022-09-21T01:33:22.795Z,43.60
2022-09-21T01:35:50.471Z,43.37
2022-09-21T01:38:18.239Z,43.83
2022-09-21T01:40:46.041Z,43.51
2022-09-21T01:43:14.116Z,43.81
2022-09-21T01:45:41.954Z,43.59
2022-09-21T01:48:10.656Z,43.71
2022-09-21T01:50:38.429Z,43.46
2022-09-21T01:53:06.118Z,43.60
2022-09-21T01:55:33.840Z,43.93
2022-09-21T01:58:02.282Z,43.89
2022-09-21T02:00:30.035Z,43.45
2022-09-21T02:02:58.505Z,43.92
2022-09-21T02:05:26.257Z,43.71
2022-09-21T02:07:53.957Z,43.44
2022-09-21T02:10:21.909Z,43.85
2022-09-21T02:12:51.825Z,43.71
2022-09-21T02:15:19.530Z,44.04
2022-09-21T02:17:47.435Z,43.41
2022-09-21T02:20:15.404Z,43.60
2022-09-21T02:22:43.115Z,43.46
2022-09-21T02:25:10.831Z,43.55
2022-09-21T02:27:38.562Z,43.90
2022-09-21T02:30:06.428Z,43.58
2022-09-21T02:32:35.215Z,43.61
2022-09-21T02:35:03.637Z,43.46
2022-09-21T02:37:31.526Z,43.39
2022-09-21T02:39:59.275Z,43.97
2022-09-21T02:42:28.202Z,43.80
2022-09-21T02:44:55.894Z,43.38
2022-09-21T02:47:23.748Z,43.45
2022-09-21T02:49:53.539Z,43.39
2022-09-21T02:52:21.261Z,43.75
2022-09-21T02:54:49.006Z,43.47
2022-09-21T02:57:16.696Z,43.73
2022-09-21T02:59:44.397Z,43.47
2022-09-21T03:02:12.549Z,43.52
2022-09-21T03:04:41.234Z,43.76
2022-09-21T03:07:09.112Z,43.45
2022-09-21T03:09:36.932Z,43.48
2022-09-21T03:12:04.634Z,43.72
2022-09-21T03:14:33.137Z,43.49
2022-09-21T03:17:01.043Z,43.53
2022-09-21T03:19:29.434Z,43.47
2022-09-21T03:21:57.222Z,43.70
2022-09-21T03:24:39.832Z,43.51
2022-09-21T03:27:08.191Z,43.65
2022-09-21T03:29:36.019Z,43.60
2022-09-21T03:32:03.801Z,43.59
2022-09-21T03:34:34.378Z,43.82
2022-09-21T03:37:02.311Z,43.68
2022-09-21T03:39:30.003Z,43.77
2022-09-21T03:41:57.681Z,43.52
2022-09-21T03:44:25.894Z,43.49
2022-09-21T03:46:53.576Z,43.73
2022-09-21T03:49:21.287Z,43.56
2022-09-21T03:51:49.086Z,43.68
2022-09-21T03:54:16.771Z,43.49
2022-09-21T03:56:44.959Z,43.70
2022-09-21T03:59:14.246Z,43.65
2022-09-21T04:01:42.379Z,43.63
2022-09-21T04:04:10.516Z,43.63
2022-09-21T04:06:38.222Z,43.68
2022-09-21T04:09:05.908Z,43.64
2022-09-21T04:11:33.690Z,43.52
2022-09-21T04:14:01.578Z,43.15
2022-09-21T04:16:29.256Z,43.31
2022-09-21T04:18:56.996Z,43.58
2022-09-21T04:21:24.707Z,43.71
2022-09-21T04:23:52.439Z,43.74
2022-09-21T04:26:20.111Z,43.68
2022-09-21T04:28:47.888Z,43.87
2022-09-21T04:31:15.604Z,43.74
2022-09-21T04:33:43.319Z,43.81
2022-09-21T04:36:11.082Z,44.09
2022-09-21T04:38:40.529Z,43.95
2022-09-21T04:41:08.283Z,43.69
2022-09-21T04:43:35.966Z,43.91
2022-09-21T04:46:03.765Z,44.12
2022-09-21T04:48:31.551Z,44.04
2022-09-21T04:50:59.257Z,43.70
2022-09-21T04:53:33.187Z,43.90
2022-09-21T04:56:00.952Z,43.99
2022-09-21T04:58:28.966Z,43.67
2022-09-21T05:00:56.811Z,43.94
2022-09-21T05:03:24.705Z,44.03
2022-09-21T05:05:52.427Z,43.94
2022-09-21T05:08:41.133Z,44.13
2022-09-21T05:11:07.813Z,44.04
2022-09-21T05:13:35.521Z,43.74
2022-09-21T05:16:03.285Z,44.04
2022-09-21T05:18:31.071Z,43.78
2022-09-21T05:20:58.782Z,43.89
2022-09-21T05:23:26.507Z,43.91
2022-09-21T05:25:54.212Z,43.84
2022-09-21T05:28:21.971Z,43.86
2022-09-21T05:31:07.393Z,43.85
2022-09-21T05:33:37.348Z,43.93
2022-09-21T05:36:05.036Z,43.67
2022-09-21T05:38:33.274Z,43.83
2022-09-21T05:41:00.967Z,44.06
2022-09-21T05:43:28.656Z,43.83
2022-09-21T05:45:56.386Z,43.88
2022-09-21T05:48:24.095Z,44.09
2022-09-21T05:50:51.786Z,43.80
2022-09-21T05:53:19.477Z,43.88
2022-09-21T05:55:47.124Z,43.63
2022-09-21T05:58:14.825Z,43.58
2022-09-21T06:00:42.508Z,43.66
2022-09-21T06:03:13.227Z,43.71
2022-09-21T06:05:43.259Z,43.77
2022-09-21T06:08:10.949Z,43.94
2022-09-21T06:10:38.648Z,43.84
2022-09-21T06:13:06.323Z,43.95
2022-09-21T06:15:34.775Z,43.92
2022-09-21T06:18:02.554Z,43.74
2022-09-21T06:20:30.347Z,44.08
2022-09-21T06:22:57.992Z,43.76
2022-09-21T06:25:25.651Z,43.76
2022-09-21T06:27:53.340Z,43.88
2022-09-21T06:30:21.034Z,43.77
2022-09-21T06:32:48.751Z,44.08
2022-09-21T06:35:16.459Z,43.76
2022-09-21T06:37:44.139Z,44.25
2022-09-21T06:40:11.842Z,44.17
2022-09-21T06:42:39.525Z,43.65
2022-09-21T06:45:07.169Z,44.11
2022-09-21T06:47:34.850Z,43.86
2022-09-21T06:50:03.144Z,43.88
2022-09-21T06:52:30.831Z,44.17
2022-09-21T06:54:58.494Z,44.19
2022-09-21T06:57:26.155Z,44.13
2022-09-21T06:59:54.023Z,43.94
2022-09-21T07:02:21.965Z,43.81
2022-09-21T07:04:49.720Z,44.07
2022-09-21T07:07:17.405Z,43.78
2022-09-21T07:12:34.676Z,44.21
2022-09-21T07:15:02.413Z,44.10
2022-09-21T07:17:30.140Z,44.35
2022-09-21T07:19:57.888Z,44.13
2022-09-21T07:22:25.568Z,44.39
2022-09-21T07:24:53.278Z,44.26
2022-09-21T07:27:21.019Z,44.36
2022-09-21T07:29:48.686Z,44.30
2022-09-21T07:32:16.396Z,44.28
2022-09-21T07:34:44.112Z,44.29
2022-09-21T07:37:11.799Z,44.15
2022-09-21T07:39:39.565Z,44.30
2022-09-21T07:42:07.250Z,44.17
2022-09-21T07:44:35.274Z,44.04
2022-09-21T07:47:03.482Z,44.19
2022-09-21T07:49:31.244Z,44.35
2022-09-21T07:52:03.548Z,44.09
2022-09-21T07:54:33.762Z,44.15
2022-09-21T07:57:18.839Z,44.29
2022-09-21T07:59:46.488Z,44.06
2022-09-21T08:02:14.316Z,44.41
2022-09-21T08:04:42.019Z,44.34
2022-09-21T08:07:09.711Z,44.13
2022-09-21T08:09:37.391Z,44.40
2022-09-21T08:12:05.197Z,44.46
2022-09-21T08:14:33.624Z,44.44
2022-09-21T08:17:01.332Z,44.23
2022-09-21T08:19:29.000Z,44.00
2022-09-21T08:21:58.059Z,44.43
2022-09-21T08:24:26.841Z,44.45
2022-09-21T08:26:55.900Z,44.23
2022-09-21T08:29:23.781Z,44.50
2022-09-21T08:31:52.373Z,44.34
2022-09-21T08:34:20.285Z,44.41
2022-09-21T08:36:51.736Z,44.47
2022-09-21T08:39:22.250Z,44.32
2022-09-21T08:41:50.023Z,44.25
2022-09-21T08:44:17.780Z,44.23
2022-09-21T08:46:45.547Z,44.48
2022-09-21T08:49:14.420Z,44.31
2022-09-21T08:51:42.128Z,44.11
2022-09-21T08:54:10.001Z,44.38
2022-09-21T08:57:01.007Z,44.41
2022-09-21T08:59:25.319Z,44.55
2022-09-21T09:01:53.044Z,44.32
2022-09-21T09:04:20.792Z,44.43
2022-09-21T09:06:48.454Z,44.41
2022-09-21T09:09:16.161Z,44.48
2022-09-21T09:11:43.831Z,44.43
2022-09-21T09:14:11.516Z,44.56
2022-09-21T09:16:39.265Z,44.40
2022-09-21T09:19:07.057Z,44.21
2022-09-21T09:21:35.321Z,43.88
2022-09-21T09:24:02.990Z,44.36
2022-09-21T09:26:30.651Z,44.26
2022-09-21T09:28:58.319Z,44.05
2022-09-21T09:31:26.082Z,44.06
2022-09-21T09:33:54.063Z,44.41
2022-09-21T09:36:46.603Z,44.36
2022-09-21T09:39:12.804Z,44.45
2022-09-21T09:41:40.538Z,44.39
2022-09-21T09:44:08.231Z,44.11
2022-09-21T09:46:35.971Z,44.49
2022-09-21T09:49:03.696Z,44.05
2022-09-21T09:51:35.174Z,44.45
2022-09-21T09:54:06.921Z,44.06
2022-09-21T09:56:37.327Z,44.39
2022-09-21T09:59:08.252Z,44.47
2022-09-21T10:01:36.046Z,44.06
2022-09-21T10:04:03.877Z,44.22
2022-09-21T10:06:31.646Z,44.36
2022-09-21T10:08:59.308Z,44.40
2022-09-21T10:11:27.009Z,44.30
2022-09-21T10:13:54.685Z,43.92
2022-09-21T10:16:22.551Z,44.18
2022-09-21T10:18:50.431Z,43.98
2022-09-21T10:21:18.185Z,44.24
2022-09-21T10:23:45.904Z,44.24
2022-09-21T10:26:13.629Z,44.11
2022-09-21T10:28:41.281Z,43.92
2022-09-21T10:31:09.086Z,44.26
2022-09-21T10:33:36.819Z,44.17
2022-09-21T10:36:04.554Z,44.18
2022-09-21T10:38:32.433Z,43.96
2022-09-21T10:41:00.095Z,44.08
2022-09-21T10:43:27.754Z,44.03
2022-09-21T10:45:55.475Z,44.01
2022-09-21T10:48:23.258Z,44.14
2022-09-21T10:50:50.935Z,44.20
2022-09-21T10:53:18.685Z,44.24
2022-09-21T10:55:58.492Z,44.16
2022-09-21T10:58:34.102Z,44.01
2022-09-21T11:01:01.850Z,44.16
2022-09-21T11:03:29.580Z,44.01
2022-09-21T11:05:57.320Z,43.95
2022-09-21T11:08:25.000Z,44.14
2022-09-21T11:10:52.692Z,44.10
2022-09-21T11:13:20.356Z,44.19
2022-09-21T11:15:48.179Z,44.08
2022-09-21T11:18:16.021Z,44.20
2022-09-21T11:20:43.723Z,44.02
2022-09-21T11:23:12.015Z,44.16
2022-09-21T11:25:39.718Z,44.08
2022-09-21T11:28:07.685Z,44.20
2022-09-21T11:30:35.415Z,44.30
2022-09-21T11:33:03.308Z,43.99
2022-09-21T11:35:31.013Z,44.26
2022-09-21T11:37:58.677Z,44.20
2022-09-21T11:40:26.427Z,43.90
2022-09-21T11:42:54.165Z,44.00
2022-09-21T11:45:21.879Z,44.37
2022-09-21T11:47:49.541Z,44.29
2022-09-21T11:50:33.653Z,44.45
2022-09-21T11:53:01.460Z,44.62
2022-09-21T11:55:29.199Z,44.58
2022-09-21T11:57:57.147Z,44.40
2022-09-21T12:00:26.672Z,44.10
2022-09-21T12:02:54.393Z,44.19
2022-09-21T12:05:22.141Z,44.30
2022-09-21T12:07:49.861Z,44.33
2022-09-21T12:10:17.538Z,44.23
2022-09-21T12:12:45.265Z,44.43
2022-09-21T12:15:12.984Z,44.20
2022-09-21T12:17:40.773Z,44.52
2022-09-21T12:20:08.511Z,44.05
2022-09-21T12:22:36.234Z,44.18
2022-09-21T12:25:04.063Z,44.02
2022-09-21T12:27:31.770Z,44.19
2022-09-21T12:29:59.468Z,44.05
2022-09-21T12:32:27.176Z,43.91
2022-09-21T12:34:55.057Z,43.93
2022-09-21T12:37:23.309Z,44.26
2022-09-21T12:39:51.124Z,44.26
2022-09-21T12:42:19.117Z,44.01
2022-09-21T12:44:53.055Z,44.26
2022-09-21T12:47:20.840Z,44.21
2022-09-21T12:49:48.613Z,43.99
2022-09-21T12:52:16.336Z,44.11
2022-09-21T12:54:45.343Z,44.11
2022-09-21T12:57:38.255Z,44.04
2022-09-21T13:00:01.869Z,44.00
2022-09-21T13:02:30.408Z,44.41
2022-09-21T13:04:58.256Z,44.16
2022-09-21T13:07:25.931Z,44.13
2022-09-21T13:09:53.650Z,44.36
2022-09-21T13:12:21.363Z,44.38
2022-09-21T13:14:49.480Z,44.13
2022-09-21T13:17:17.179Z,44.65
2022-09-21T13:19:44.897Z,44.11
2022-09-21T13:22:13.920Z,44.36
2022-09-21T13:24:42.309Z,44.21
2022-09-21T13:27:10.030Z,44.44
2022-09-21T13:29:38.148Z,44.23
2022-09-21T13:32:05.938Z,44.20
2022-09-21T13:34:33.710Z,44.09
2022-09-21T13:37:02.071Z,44.48
2022-09-21T13:39:29.833Z,44.17
2022-09-21T13:42:04.637Z,44.01
2022-09-21T13:44:32.395Z,44.46
2022-09-21T13:47:01.639Z,44.25
2022-09-21T13:49:31.035Z,44.39
2022-09-21T13:52:00.253Z,44.26
2022-09-21T13:54:27.937Z,44.20
2022-09-21T13:56:55.748Z,44.25
2022-09-21T13:59:23.592Z,44.47
2022-09-21T14:01:51.751Z,43.90
2022-09-21T14:04:19.488Z,39.36
2022-09-21T14:06:47.281Z,35.03
2022-09-21T14:09:14.981Z,30.44
2022-09-21T14:11:45.202Z,26.47
2022-09-21T14:14:13.274Z,23.67
2022-09-21T14:16:44.638Z,23.15
2022-09-21T14:19:12.376Z,23.03
2022-09-21T14:21:40.153Z,24.10
2022-09-21T14:24:08.066Z,24.54
2022-09-21T14:26:35.985Z,25.70
2022-09-21T14:29:03.717Z,26.52
2022-09-21T14:31:31.518Z,27.55
2022-09-21T14:33:59.615Z,27.88
2022-09-21T14:36:31.104Z,28.58
2022-09-21T14:39:00.637Z,29.52
2022-09-21T14:41:31.272Z,30.26
2022-09-21T14:43:59.040Z,30.68
2022-09-21T14:46:28.856Z,31.45
2022-09-21T14:48:56.671Z,31.84
2022-09-21T14:51:24.534Z,32.55
2022-09-21T14:53:52.276Z,33.04
2022-09-21T14:56:23.043Z,33.58
2022-09-21T14:58:52.195Z,33.83
2022-09-21T15:01:19.993Z,34.20
2022-09-21T15:03:49.043Z,34.18
2022-09-21T15:06:30.955Z,34.03
2022-09-21T15:09:16.388Z,34.02
2022-09-21T15:11:44.132Z,34.15
2022-09-21T15:14:12.318Z,34.26
2022-09-21T15:16:40.352Z,34.29
2022-09-21T15:19:08.078Z,34.44
2022-09-21T15:21:38.151Z,35.14
2022-09-21T15:24:06.022Z,35.13
2022-09-21T15:26:34.262Z,35.47
2022-09-21T15:29:10.422Z,35.97
2022-09-21T15:31:38.549Z,36.21
2022-09-21T15:34:06.362Z,36.33
2022-09-21T15:36:34.267Z,37.07
2022-09-21T15:39:01.969Z,37.01
2022-09-21T15:41:29.688Z,37.38
2022-09-21T15:43:59.629Z,37.61
2022-09-21T15:46:27.447Z,37.61
2022-09-21T15:48:57.508Z,37.69
2022-09-21T15:51:28.809Z,37.08
2022-09-21T15:53:57.564Z,37.28
2022-09-21T15:56:25.711Z,37.30
2022-09-21T15:58:55.921Z,36.98
2022-09-21T16:01:23.830Z,37.09
2022-09-21T16:03:56.463Z,37.53
2022-09-21T16:06:24.781Z,37.81
2022-09-21T16:08:52.527Z,37.69
2022-09-21T16:11:23.109Z,38.04
2022-09-21T16:14:08.586Z,38.13
2022-09-21T16:16:36.363Z,38.60
2022-09-21T16:19:04.750Z,38.12
2022-09-21T16:21:33.990Z,38.19
2022-09-21T16:24:01.884Z,38.22
2022-09-21T16:26:29.582Z,38.10
2022-09-21T16:28:57.697Z,38.48
2022-09-21T16:31:26.167Z,38.33
2022-09-21T16:33:54.357Z,38.04
2022-09-21T16:36:22.368Z,38.87
2022-09-21T16:38:50.621Z,38.56
2022-09-21T16:41:19.105Z,39.22
2022-09-21T16:43:46.957Z,38.73
2022-09-21T16:46:14.739Z,39.08
2022-09-21T16:48:42.624Z,39.04
2022-09-21T16:51:10.298Z,39.63
2022-09-21T16:53:37.952Z,39.34
2022-09-21T16:56:05.877Z,40.10
2022-09-21T16:58:33.600Z,40.04
2022-09-21T17:01:01.479Z,40.31
2022-09-21T17:03:31.612Z,40.17
2022-09-21T17:05:59.295Z,40.13
2022-09-21T17:08:27.768Z,40.56
2022-09-21T17:10:55.972Z,40.52
2022-09-21T17:13:23.706Z,40.31
2022-09-21T17:15:52.126Z,40.54
2022-09-21T17:18:19.881Z,40.75
2022-09-21T17:20:48.028Z,40.55
2022-09-21T17:23:15.773Z,41.01
2022-09-21T17:25:44.807Z,40.75
2022-09-21T17:28:12.628Z,41.42
2022-09-21T17:30:42.552Z,41.30
2022-09-21T17:33:10.832Z,41.17
2022-09-21T17:35:38.994Z,41.23
2022-09-21T17:38:10.028Z,41.68
2022-09-21T17:40:40.512Z,41.48
2022-09-21T17:43:11.987Z,41.77
2022-09-21T17:45:39.982Z,41.72
2022-09-21T17:48:07.707Z,41.19
2022-09-21T17:50:35.479Z,38.65
2022-09-21T17:53:21.009Z,31.42
2022-09-21T17:55:49.079Z,26.82
2022-09-21T17:58:16.923Z,25.12
2022-09-21T18:00:44.982Z,24.77
2022-09-21T18:03:12.642Z,25.22
2022-09-21T18:05:40.380Z,25.36
2022-09-21T18:08:08.155Z,25.84
2022-09-21T18:10:36.139Z,26.12
2022-09-21T18:13:04.031Z,25.91
2022-09-21T18:15:32.428Z,25.77
2022-09-21T18:18:00.373Z,26.74
2022-09-21T18:20:28.830Z,27.35
2022-09-21T18:22:57.438Z,27.34
2022-09-21T18:25:25.300Z,27.41
2022-09-21T18:27:54.860Z,28.47
2022-09-21T18:30:23.343Z,28.44
2022-09-21T18:32:51.138Z,29.44
2022-09-21T18:35:18.989Z,29.54
2022-09-21T18:37:47.421Z,30.14
2022-09-21T18:40:15.561Z,30.85
2022-09-21T18:42:43.337Z,31.55
2022-09-21T18:45:11.024Z,31.82
2022-09-21T18:47:38.894Z,32.55
2022-09-21T18:50:06.799Z,32.93
2022-09-21T18:52:35.862Z,33.70
2022-09-21T18:55:04.469Z,33.85
2022-09-21T18:57:32.770Z,34.45
2022-09-21T19:00:00.460Z,34.85
2022-09-21T19:02:28.580Z,35.37
2022-09-21T19:04:59.222Z,35.81
2022-09-21T19:07:27.906Z,35.83
2022-09-21T19:09:55.597Z,36.72
2022-09-21T19:12:23.716Z,36.31
2022-09-21T19:14:51.417Z,36.67
2022-09-21T19:17:19.190Z,37.34
2022-09-21T19:19:47.068Z,37.42
2022-09-21T19:22:14.770Z,37.33
2022-09-21T19:24:42.647Z,37.75
2022-09-21T19:27:10.337Z,38.02
2022-09-21T19:29:39.395Z,37.58
2022-09-21T19:32:07.108Z,37.38
2022-09-21T19:34:34.973Z,36.91
2022-09-21T19:37:07.566Z,37.26
2022-09-21T19:39:35.665Z,37.75
2022-09-21T19:42:03.613Z,37.51
2022-09-21T19:44:31.806Z,38.03
2022-09-21T19:46:59.488Z,37.66
2022-09-21T19:49:27.299Z,37.94
2022-09-21T19:51:55.932Z,38.08
2022-09-21T19:54:41.142Z,38.37
2022-09-21T19:57:26.327Z,39.13
2022-09-21T19:59:54.014Z,39.24
2022-09-21T20:02:25.433Z,39.13
2022-09-21T20:04:55.820Z,39.10
2022-09-21T20:07:23.972Z,39.37
2022-09-21T20:09:52.675Z,39.25
2022-09-21T20:12:20.350Z,39.74
2022-09-21T20:14:48.136Z,39.96
2022-09-21T20:17:15.940Z,40.08
2022-09-21T20:19:44.643Z,39.98
2022-09-21T20:22:12.390Z,39.77
2022-09-21T20:24:40.115Z,40.22
2022-09-21T20:27:07.805Z,40.26
2022-09-21T20:29:35.815Z,40.30
2022-09-21T20:32:03.552Z,40.51
2022-09-21T20:34:31.498Z,40.21
2022-09-21T20:36:59.189Z,40.18
2022-09-21T20:39:26.997Z,40.72
2022-09-21T20:41:54.740Z,40.82
2022-09-21T20:44:22.536Z,40.74
2022-09-21T20:46:50.352Z,40.92
2022-09-21T20:49:18.055Z,40.94
2022-09-21T20:51:46.028Z,41.13
2022-09-21T20:54:14.036Z,40.76
2022-09-21T20:56:41.759Z,41.13
2022-09-21T20:59:09.711Z,41.40
2022-09-21T21:01:37.504Z,41.14
2022-09-21T21:04:05.301Z,41.23
2022-09-21T21:06:34.132Z,41.24
2022-09-21T21:09:02.100Z,41.64
2022-09-21T21:11:30.018Z,41.49
2022-09-21T21:13:57.693Z,41.38
2022-09-21T21:16:26.717Z,41.44
2022-09-21T21:18:54.426Z,41.91
2022-09-21T21:21:25.372Z,41.90
2022-09-21T21:24:09.955Z,41.96
2022-09-21T21:27:00.927Z,41.73
2022-09-21T21:29:25.376Z,42.08
2022-09-21T21:31:53.126Z,41.68
2022-09-21T21:34:20.846Z,41.72
2022-09-21T21:36:48.791Z,42.02
2022-09-21T21:39:16.545Z,42.03
2022-09-21T21:41:44.398Z,41.79
2022-09-21T21:44:12.383Z,41.98
2022-09-21T21:46:40.066Z,41.90
2022-09-21T21:49:08.021Z,42.27
2022-09-21T21:51:36.116Z,41.84
2022-09-21T21:54:03.912Z,42.34
2022-09-21T21:56:31.606Z,41.93
2022-09-21T21:58:59.343Z,41.97
2022-09-21T22:01:27.311Z,42.21
2022-09-21T22:03:55.127Z,42.39
2022-09-21T22:06:22.868Z,42.21
2022-09-21T22:08:50.772Z,42.47
2022-09-21T22:11:18.657Z,42.32
2022-09-21T22:13:46.655Z,42.42
2022-09-21T22:16:14.535Z,42.66
2022-09-21T22:18:42.330Z,42.35
2022-09-21T22:21:10.199Z,42.34
2022-09-21T22:23:37.899Z,42.57
2022-09-21T22:26:05.760Z,42.55
2022-09-21T22:28:34.584Z,42.55
2022-09-21T22:31:02.469Z,42.50
2022-09-21T22:33:33.159Z,42.77
2022-09-21T22:36:01.864Z,42.48
2022-09-21T22:38:31.643Z,42.75
2022-09-21T22:40:59.359Z,42.79
2022-09-21T22:43:27.091Z,42.53
2022-09-21T22:45:54.824Z,42.62
2022-09-21T22:48:22.613Z,42.85
2022-09-21T22:50:50.452Z,42.76
2022-09-21T22:53:18.147Z,42.76
2022-09-21T22:55:45.969Z,42.92
2022-09-21T22:58:13.703Z,42.74
2022-09-21T23:00:42.185Z,42.50
2022-09-21T23:03:12.027Z,42.87
2022-09-21T23:05:39.746Z,42.87
2022-09-21T23:08:07.586Z,42.96
2022-09-21T23:10:35.274Z,42.79
2022-09-21T23:13:03.184Z,42.86
2022-09-21T23:15:30.870Z,42.74
2022-09-21T23:17:58.550Z,42.90
2022-09-21T23:20:26.266Z,42.77
2022-09-21T23:22:53.962Z,43.01
2022-09-21T23:25:22.188Z,42.78
2022-09-21T23:27:49.883Z,43.10
2022-09-21T23:30:19.216Z,42.90
2022-09-21T23:32:46.911Z,42.92
2022-09-21T23:35:14.683Z,43.16
2022-09-21T23:37:42.421Z,43.03
2022-09-21T23:40:10.216Z,42.96
2022-09-21T23:42:37.931Z,43.07
2022-09-21T23:45:05.842Z,42.95
2022-09-21T23:47:33.536Z,43.09
2022-09-21T23:50:01.356Z,43.18
2022-09-21T23:52:29.442Z,43.02
2022-09-21T23:54:57.138Z,43.01
2022-09-21T23:57:25.100Z,43.04
2022-09-21T23:59:52.852Z,42.94
